createdAt,value
2023-06-03T00:00:42.148Z,16.50
2023-06-03T00:03:15.649Z,16.60
2023-06-03T00:05:43.142Z,16.40
2023-06-03T00:08:10.461Z,16.40
2023-06-03T00:10:37.536Z,16.40
2023-06-03T00:13:04.677Z,16.40
2023-06-03T00:15:31.742Z,16.30
2023-06-03T00:17:58.872Z,16.20
2023-06-03T00:20:26.470Z,16.10
2023-06-03T00:22:53.681Z,16.10
2023-06-03T00:25:20.799Z,16.10
2023-06-03T00:27:50.514Z,16.10
2023-06-03T00:30:17.835Z,16.00
2023-06-03T00:32:46.243Z,16.00
2023-06-03T00:35:15.106Z,15.90
2023-06-03T00:37:42.231Z,15.80
2023-06-03T00:40:10.548Z,15.80
2023-06-03T00:42:37.716Z,15.90
2023-06-03T00:45:05.564Z,15.90
2023-06-03T00:47:33.139Z,15.70
2023-06-03T00:50:00.570Z,15.60
2023-06-03T00:52:27.960Z,15.70
2023-06-03T00:54:55.446Z,15.50
2023-06-03T00:57:23.934Z,15.60
2023-06-03T00:59:51.304Z,15.60
2023-06-03T01:02:19.314Z,15.50
2023-06-03T01:04:49.547Z,15.50
2023-06-03T01:07:31.763Z,15.40
2023-06-03T01:10:27.405Z,15.40
2023-06-03T01:13:12.028Z,15.40
2023-06-03T01:15:41.448Z,15.40
2023-06-03T01:18:09.079Z,15.60
2023-06-03T01:20:36.812Z,15.50
2023-06-03T01:23:30.116Z,15.30
2023-06-03T01:25:58.723Z,15.10
2023-06-03T01:28:26.803Z,15.10
2023-06-03T01:30:55.228Z,15.10
2023-06-03T01:33:24.587Z,15.20
2023-06-03T01:35:54.481Z,15.20
2023-06-03T01:38:23.768Z,15.10
2023-06-03T01:40:55.692Z,15.00
2023-06-03T01:43:22.942Z,14.90
2023-06-03T01:45:50.081Z,14.80
2023-06-03T01:48:18.401Z,14.70
2023-06-03T01:50:45.775Z,14.60
2023-06-03T01:53:16.301Z,14.50
2023-06-03T01:55:45.591Z,14.50
2023-06-03T01:58:13.161Z,14.60
2023-06-03T02:00:40.587Z,14.60
2023-06-03T02:03:07.721Z,14.60
2023-06-03T02:05:34.848Z,14.50
2023-06-03T02:08:02.038Z,14.40
2023-06-03T02:10:30.463Z,14.40
2023-06-03T02:12:57.580Z,14.40
2023-06-03T02:15:24.677Z,14.40
2023-06-03T02:17:52.384Z,14.40
2023-06-03T02:20:19.927Z,14.50
2023-06-03T02:22:47.021Z,14.50
2023-06-03T02:25:15.028Z,14.50
2023-06-03T02:27:45.055Z,14.40
2023-06-03T02:30:13.185Z,14.50
2023-06-03T02:32:40.932Z,14.50
2023-06-03T02:35:08.876Z,14.40
2023-06-03T02:37:35.965Z,14.30
2023-06-03T02:40:03.513Z,14.40
2023-06-03T02:42:31.362Z,14.40
2023-06-03T02:44:58.473Z,14.40
2023-06-03T02:47:25.637Z,14.20
2023-06-03T02:49:52.750Z,14.10
2023-06-03T02:52:19.744Z,14.00
2023-06-03T02:54:46.707Z,13.90
2023-06-03T02:57:13.919Z,13.90
2023-06-03T02:59:41.016Z,13.90
2023-06-03T03:02:08.182Z,13.90
2023-06-03T03:04:37.786Z,13.90
2023-06-03T03:07:10.686Z,13.90
2023-06-03T03:09:39.729Z,13.80
2023-06-03T03:12:10.544Z,13.80
2023-06-03T03:14:41.557Z,13.70
2023-06-03T03:17:08.716Z,13.70
2023-06-03T03:19:36.780Z,13.70
2023-06-03T03:22:04.516Z,13.70
2023-06-03T03:24:31.968Z,13.70
2023-06-03T03:27:00.608Z,13.70
2023-06-03T03:29:28.359Z,13.70
2023-06-03T03:32:12.835Z,13.70
2023-06-03T03:34:45.044Z,13.70
2023-06-03T03:37:14.345Z,13.60
2023-06-03T03:39:44.497Z,13.50
2023-06-03T03:42:12.016Z,13.50
2023-06-03T03:44:40.479Z,13.70
2023-06-03T03:47:09.040Z,13.80
2023-06-03T03:49:40.228Z,13.80
2023-06-03T03:52:14.813Z,13.90
2023-06-03T03:54:47.368Z,14.00
2023-06-03T03:57:17.797Z,14.00
2023-06-03T03:59:50.106Z,13.90
2023-06-03T04:02:20.625Z,13.80
2023-06-03T04:04:48.408Z,13.80
2023-06-03T04:07:19.687Z,13.80
2023-06-03T04:09:48.382Z,13.80
2023-06-03T04:12:44.593Z,13.80
2023-06-03T04:15:13.928Z,13.90
2023-06-03T04:17:41.957Z,13.80
2023-06-03T04:20:50.560Z,13.90
2023-06-03T04:23:21.369Z,14.00
2023-06-03T04:25:50.147Z,14.00
2023-06-03T04:28:17.432Z,14.10
2023-06-03T04:30:45.943Z,14.00
2023-06-03T04:33:13.278Z,14.10
2023-06-03T04:35:40.398Z,14.20
2023-06-03T04:38:07.649Z,14.30
2023-06-03T04:40:35.086Z,14.30
2023-06-03T04:43:04.953Z,14.30
2023-06-03T04:45:34.559Z,14.40
2023-06-03T04:48:02.737Z,14.40
2023-06-03T04:50:36.287Z,14.30
2023-06-03T04:53:06.007Z,14.30
2023-06-03T04:55:33.428Z,14.50
2023-06-03T04:58:02.038Z,14.50
2023-06-03T05:00:30.351Z,14.60
2023-06-03T05:03:10.020Z,14.70
2023-06-03T05:05:43.744Z,14.70
2023-06-03T05:08:13.028Z,14.80
2023-06-03T05:10:40.941Z,14.90
2023-06-03T05:13:08.422Z,14.90
2023-06-03T05:15:36.869Z,15.00
2023-06-03T05:18:04.800Z,15.10
2023-06-03T05:20:33.500Z,15.10
2023-06-03T05:23:00.739Z,15.20
2023-06-03T05:25:28.613Z,15.20
2023-06-03T05:28:03.886Z,15.30
2023-06-03T05:30:33.466Z,15.40
2023-06-03T05:33:01.233Z,15.30
2023-06-03T05:35:29.045Z,15.40
2023-06-03T05:37:56.121Z,15.50
2023-06-03T05:40:23.312Z,15.70
2023-06-03T05:42:50.619Z,15.70
2023-06-03T05:45:19.686Z,15.60
2023-06-03T05:47:47.035Z,15.80
2023-06-03T05:50:14.266Z,15.90
2023-06-03T05:52:42.532Z,16.00
2023-06-03T05:55:11.071Z,16.00
2023-06-03T05:57:41.703Z,16.20
2023-06-03T06:00:10.403Z,16.20
2023-06-03T06:02:42.143Z,16.30
2023-06-03T06:05:11.401Z,16.30
2023-06-03T06:07:38.487Z,16.40
2023-06-03T06:10:06.063Z,16.60
2023-06-03T06:12:33.828Z,16.70
2023-06-03T06:15:00.972Z,16.80
2023-06-03T06:17:28.770Z,16.90
2023-06-03T06:19:56.444Z,17.00
2023-06-03T06:22:23.787Z,17.10
2023-06-03T06:24:51.072Z,17.10
2023-06-03T06:27:18.699Z,16.70
2023-06-03T06:29:46.185Z,16.70
2023-06-03T06:32:25.619Z,16.80
2023-06-03T06:34:54.028Z,17.00
2023-06-03T06:37:22.429Z,17.40
2023-06-03T06:39:56.908Z,17.60
2023-06-03T06:42:44.332Z,17.70
2023-06-03T06:45:28.385Z,17.80
2023-06-03T06:48:11.436Z,18.00
2023-06-03T06:51:00.623Z,18.00
2023-06-03T06:53:35.643Z,17.80
2023-06-03T06:56:09.271Z,17.80
2023-06-03T06:58:47.337Z,18.00
2023-06-03T07:01:15.459Z,18.10
2023-06-03T07:03:45.534Z,18.30
2023-06-03T07:06:13.704Z,18.50
2023-06-03T07:08:42.386Z,18.60
2023-06-03T07:11:10.092Z,18.60
2023-06-03T07:13:57.652Z,18.60
2023-06-03T07:16:25.627Z,18.40
2023-06-03T07:18:54.981Z,18.60
2023-06-03T07:21:28.963Z,18.60
2023-06-03T07:24:00.999Z,18.30
2023-06-03T07:26:32.990Z,18.90
2023-06-03T07:29:00.905Z,18.70
2023-06-03T07:31:30.867Z,19.10
2023-06-03T07:33:58.519Z,19.20
2023-06-03T07:36:35.949Z,19.30
2023-06-03T07:39:14.403Z,19.30
2023-06-03T07:41:52.003Z,19.20
2023-06-03T07:44:50.254Z,19.50
2023-06-03T07:47:18.748Z,19.70
2023-06-03T07:49:49.830Z,19.70
2023-06-03T07:52:19.826Z,20.00
2023-06-03T07:54:47.192Z,20.20
2023-06-03T07:57:15.051Z,19.80
2023-06-03T07:59:53.868Z,20.20
2023-06-03T08:02:21.610Z,20.40
2023-06-03T08:04:48.985Z,20.40
2023-06-03T08:07:17.276Z,20.30
2023-06-03T08:09:44.661Z,20.50
2023-06-03T08:12:12.310Z,19.70
2023-06-03T08:14:40.733Z,20.40
2023-06-03T08:17:12.185Z,20.80
2023-06-03T08:19:40.354Z,21.30
2023-06-03T08:22:42.489Z,20.10
2023-06-03T08:25:10.057Z,21.20
2023-06-03T08:27:38.580Z,21.60
2023-06-03T08:30:06.911Z,20.60
2023-06-03T08:32:41.599Z,20.30
2023-06-03T08:35:12.829Z,20.50
2023-06-03T08:37:40.609Z,21.00
2023-06-03T08:40:10.539Z,20.90
2023-06-03T08:42:43.614Z,22.10
2023-06-03T08:45:12.491Z,22.30
2023-06-03T08:48:13.330Z,21.90
2023-06-03T08:50:44.779Z,21.70
2023-06-03T08:53:13.141Z,20.40
2023-06-03T08:55:40.988Z,20.80
2023-06-03T08:58:27.820Z,21.10
2023-06-03T09:01:00.502Z,22.20
2023-06-03T09:03:28.253Z,21.60
2023-06-03T09:05:55.607Z,22.10
2023-06-03T09:08:24.427Z,21.60
2023-06-03T09:10:51.920Z,22.10
2023-06-03T09:13:19.226Z,23.20
2023-06-03T09:15:49.706Z,23.30
2023-06-03T09:18:17.384Z,22.90
2023-06-03T09:20:44.682Z,22.90
2023-06-03T09:23:13.735Z,23.50
2023-06-03T09:25:41.057Z,24.10
2023-06-03T09:28:08.091Z,24.10
2023-06-03T09:30:36.778Z,24.10
2023-06-03T09:33:04.095Z,23.60
2023-06-03T09:35:31.328Z,24.70
2023-06-03T09:38:07.573Z,24.60
2023-06-03T09:40:35.884Z,24.20
2023-06-03T09:43:12.088Z,24.30
2023-06-03T09:45:39.240Z,24.60
2023-06-03T09:48:06.534Z,24.70
2023-06-03T09:50:33.966Z,24.20
2023-06-03T09:53:02.588Z,24.90
2023-06-03T09:55:34.419Z,25.30
2023-06-03T09:58:11.441Z,24.40
2023-06-03T10:00:50.193Z,25.30
2023-06-03T10:03:21.249Z,26.00
2023-06-03T10:05:48.373Z,25.50
2023-06-03T10:08:15.730Z,26.00
2023-06-03T10:11:03.105Z,26.10
2023-06-03T10:13:30.412Z,25.90
2023-06-03T10:15:59.657Z,25.30
2023-06-03T10:18:40.970Z,25.20
2023-06-03T10:21:09.844Z,26.10
2023-06-03T10:23:42.552Z,25.90
2023-06-03T10:26:10.355Z,26.10
2023-06-03T10:28:40.811Z,25.90
2023-06-03T10:31:12.586Z,25.20
2023-06-03T10:33:41.192Z,26.10
2023-06-03T10:36:08.902Z,25.80
2023-06-03T10:38:37.750Z,26.20
2023-06-03T10:41:05.869Z,26.80
2023-06-03T10:43:33.563Z,27.10
2023-06-03T10:46:02.420Z,27.40
2023-06-03T10:48:31.700Z,27.30
2023-06-03T10:51:41.400Z,27.10
2023-06-03T10:54:48.874Z,26.40
2023-06-03T10:57:19.342Z,26.80
2023-06-03T10:59:47.561Z,26.40
2023-06-03T11:02:15.110Z,27.60
2023-06-03T11:04:42.200Z,28.30
2023-06-03T11:07:47.056Z,27.50
2023-06-03T11:10:40.748Z,28.10
2023-06-03T11:13:12.332Z,28.20
2023-06-03T11:16:01.901Z,29.30
2023-06-03T11:18:30.562Z,28.90
2023-06-03T11:20:58.814Z,28.80
2023-06-03T11:23:48.102Z,28.40
2023-06-03T11:26:34.814Z,27.60
2023-06-03T11:29:06.373Z,28.00
2023-06-03T11:31:36.008Z,28.80
2023-06-03T11:34:26.475Z,29.10
2023-06-03T11:36:55.262Z,29.10
2023-06-03T11:39:23.582Z,29.70
2023-06-03T11:42:09.847Z,28.40
2023-06-03T11:44:39.020Z,29.00
2023-06-03T11:47:06.837Z,29.50
2023-06-03T11:49:38.532Z,28.30
2023-06-03T11:52:06.597Z,29.20
2023-06-03T11:54:33.844Z,29.80
2023-06-03T11:57:01.365Z,30.00
2023-06-03T11:59:40.839Z,30.40
2023-06-03T12:02:08.161Z,29.70
2023-06-03T12:04:36.433Z,30.20
2023-06-03T12:07:11.554Z,29.90
2023-06-03T12:09:38.890Z,30.00
2023-06-03T12:12:10.063Z,29.00
2023-06-03T12:14:39.888Z,29.70
2023-06-03T12:17:19.239Z,29.40
2023-06-03T12:19:48.925Z,29.80
2023-06-03T12:22:23.350Z,29.70
2023-06-03T12:24:50.991Z,30.40
2023-06-03T12:27:23.105Z,31.00
2023-06-03T12:30:00.509Z,30.90
2023-06-03T12:32:32.927Z,30.80
2023-06-03T12:35:13.845Z,30.20
2023-06-03T12:37:41.228Z,31.00
2023-06-03T12:40:09.462Z,31.60
2023-06-03T12:42:43.724Z,31.40
2023-06-03T12:45:11.444Z,30.90
2023-06-03T12:47:47.039Z,31.20
2023-06-03T12:50:15.913Z,31.90
2023-06-03T12:52:43.606Z,30.70
2023-06-03T12:55:12.071Z,30.10
2023-06-03T12:57:40.280Z,29.00
2023-06-03T13:00:16.369Z,30.70
2023-06-03T13:02:45.857Z,30.90
2023-06-03T13:05:13.537Z,31.00
2023-06-03T13:07:42.653Z,31.30
2023-06-03T13:10:12.326Z,31.20
2023-06-03T13:12:40.564Z,31.20
2023-06-03T13:15:08.471Z,31.10
2023-06-03T13:17:36.929Z,30.10
2023-06-03T13:20:08.369Z,31.00
2023-06-03T13:22:37.191Z,30.50
2023-06-03T13:25:05.000Z,31.20
2023-06-03T13:27:32.448Z,32.00
2023-06-03T13:29:59.527Z,31.40
2023-06-03T13:32:26.682Z,31.30
2023-06-03T13:34:54.825Z,31.60
2023-06-03T13:37:22.448Z,31.00
2023-06-03T13:39:49.526Z,31.40
2023-06-03T13:42:16.731Z,30.90
2023-06-03T13:44:43.872Z,32.20
2023-06-03T13:47:11.055Z,32.30
2023-06-03T13:49:38.164Z,32.10
2023-06-03T13:52:06.139Z,31.80
2023-06-03T13:54:33.378Z,32.00
2023-06-03T13:57:02.424Z,32.50
2023-06-03T13:59:31.708Z,32.60
2023-06-03T14:01:59.076Z,32.00
2023-06-03T14:04:26.683Z,32.20
2023-06-03T14:06:57.006Z,32.30
2023-06-03T14:09:24.092Z,32.80
2023-06-03T14:11:51.913Z,32.40
2023-06-03T14:14:20.747Z,32.40
2023-06-03T14:16:47.902Z,32.30
2023-06-03T14:19:15.123Z,29.90
2023-06-03T14:21:42.368Z,29.70
2023-06-03T14:24:09.484Z,29.80
2023-06-03T14:26:38.947Z,30.50
2023-06-03T14:29:09.416Z,31.30
2023-06-03T14:31:36.915Z,31.30
2023-06-03T14:34:07.893Z,28.90
2023-06-03T14:36:36.016Z,30.50
2023-06-03T14:39:03.167Z,31.30
2023-06-03T14:41:34.408Z,32.00
2023-06-03T14:44:01.863Z,32.80
2023-06-03T14:46:29.239Z,33.10
2023-06-03T14:48:56.428Z,33.20
2023-06-03T14:51:23.936Z,31.40
2023-06-03T14:53:51.410Z,32.20
2023-06-03T14:56:18.682Z,32.10
2023-06-03T14:58:46.087Z,32.50
2023-06-03T15:01:13.388Z,32.10
2023-06-03T15:03:41.530Z,28.70
2023-06-03T15:06:09.776Z,29.20
2023-06-03T15:08:37.079Z,30.20
2023-06-03T15:11:04.218Z,30.40
2023-06-03T15:13:31.299Z,30.00
2023-06-03T15:15:58.383Z,30.10
2023-06-03T15:18:26.284Z,30.10
2023-06-03T15:20:53.634Z,30.30
2023-06-03T15:23:21.278Z,30.00
2023-06-03T15:25:48.641Z,31.00
2023-06-03T15:28:17.087Z,31.40
2023-06-03T15:30:44.202Z,31.60
2023-06-03T15:33:11.300Z,31.30
2023-06-03T15:35:38.343Z,31.60
2023-06-03T15:38:05.596Z,31.90
2023-06-03T15:40:32.708Z,31.40
2023-06-03T15:42:59.855Z,30.80
2023-06-03T15:45:27.189Z,30.20
2023-06-03T15:47:54.481Z,30.10
2023-06-03T15:50:21.751Z,29.70
2023-06-03T15:52:48.902Z,29.60
2023-06-03T15:55:16.576Z,28.90
2023-06-03T15:57:43.785Z,28.30
2023-06-03T16:00:11.468Z,28.20
2023-06-03T16:02:38.684Z,27.90
2023-06-03T16:05:06.776Z,28.30
2023-06-03T16:07:33.931Z,28.60
2023-06-03T16:10:02.261Z,28.50
2023-06-03T16:12:29.758Z,28.40
2023-06-03T16:14:56.982Z,28.90
2023-06-03T16:17:24.352Z,29.20
2023-06-03T16:19:51.851Z,28.60
2023-06-03T16:22:19.129Z,28.60
2023-06-03T16:24:46.643Z,28.50
2023-06-03T16:27:13.954Z,28.70
2023-06-03T16:29:42.215Z,28.30
2023-06-03T16:32:11.462Z,28.30
2023-06-03T16:34:39.378Z,28.00
2023-06-03T16:37:06.649Z,27.50
2023-06-03T16:39:33.762Z,27.40
2023-06-03T16:42:00.923Z,27.30
2023-06-03T16:44:28.030Z,27.00
2023-06-03T16:46:55.150Z,26.90
2023-06-03T16:49:23.041Z,27.20
2023-06-03T16:51:51.392Z,27.50
2023-06-03T16:54:18.789Z,27.60
2023-06-03T16:56:45.923Z,27.80
2023-06-03T16:59:14.344Z,27.50
2023-06-03T17:01:41.726Z,27.70
2023-06-03T17:04:09.159Z,28.00
2023-06-03T17:06:37.386Z,27.50
2023-06-03T17:09:04.593Z,27.40
2023-06-03T17:11:32.511Z,27.10
2023-06-03T17:14:03.702Z,27.00
2023-06-03T17:16:32.123Z,26.90
2023-06-03T17:19:00.132Z,26.60
2023-06-03T17:21:27.573Z,26.70
2023-06-03T17:23:54.705Z,26.30
2023-06-03T17:26:22.796Z,26.50
2023-06-03T17:28:49.974Z,26.60
2023-06-03T17:31:17.146Z,26.40
2023-06-03T17:33:47.397Z,26.10
2023-06-03T17:36:14.660Z,25.90
2023-06-03T17:38:41.916Z,25.90
2023-06-03T17:41:09.084Z,25.70
2023-06-03T17:43:37.944Z,25.30
2023-06-03T17:46:05.957Z,25.40
2023-06-03T17:48:33.451Z,25.00
2023-06-03T17:51:00.526Z,24.70
2023-06-03T17:53:27.619Z,24.80
2023-06-03T17:55:54.861Z,24.40
2023-06-03T17:58:22.117Z,24.30
2023-06-03T18:00:49.277Z,24.10
2023-06-03T18:03:16.495Z,23.90
2023-06-03T18:05:43.841Z,24.00
2023-06-03T18:08:10.918Z,23.80
2023-06-03T18:10:38.760Z,23.80
2023-06-03T18:13:06.988Z,23.60
2023-06-03T18:15:34.984Z,23.50
2023-06-03T18:18:02.428Z,23.30
2023-06-03T18:20:29.560Z,23.30
2023-06-03T18:22:58.704Z,23.20
2023-06-03T18:25:27.252Z,23.20
2023-06-03T18:27:54.378Z,23.00
2023-06-03T18:30:21.640Z,23.00
2023-06-03T18:32:49.646Z,22.90
2023-06-03T18:35:16.803Z,22.70
2023-06-03T18:37:48.672Z,22.60
2023-06-03T18:40:16.292Z,22.50
2023-06-03T18:42:46.502Z,22.50
2023-06-03T18:45:14.687Z,22.30
2023-06-03T18:47:44.561Z,22.20
2023-06-03T18:50:12.305Z,22.10
2023-06-03T18:52:39.613Z,21.90
2023-06-03T18:55:07.857Z,21.80
2023-06-03T18:57:34.965Z,21.70
2023-06-03T19:00:03.720Z,21.50
2023-06-03T19:02:31.081Z,21.30
2023-06-03T19:04:58.273Z,21.30
2023-06-03T19:07:25.440Z,21.20
2023-06-03T19:09:52.539Z,21.20
2023-06-03T19:12:19.857Z,21.10
2023-06-03T19:14:46.973Z,21.00
2023-06-03T19:17:14.083Z,20.80
2023-06-03T19:19:41.163Z,20.80
2023-06-03T19:22:08.227Z,20.70
2023-06-03T19:24:35.457Z,20.70
2023-06-03T19:27:02.515Z,20.50
2023-06-03T19:29:29.615Z,20.40
2023-06-03T19:31:57.032Z,20.20
2023-06-03T19:34:24.198Z,20.20
2023-06-03T19:36:51.281Z,20.20
2023-06-03T19:39:18.604Z,20.30
2023-06-03T19:41:45.699Z,20.20
2023-06-03T19:44:12.798Z,20.20
2023-06-03T19:46:39.986Z,20.10
2023-06-03T19:49:07.093Z,20.10
2023-06-03T19:51:34.229Z,20.10
2023-06-03T19:54:01.460Z,19.90
2023-06-03T19:56:28.589Z,19.70
2023-06-03T19:58:56.045Z,19.60
2023-06-03T20:01:23.170Z,19.50
2023-06-03T20:03:50.263Z,19.40
2023-06-03T20:06:17.319Z,19.40
2023-06-03T20:08:44.451Z,19.50
2023-06-03T20:11:11.663Z,19.40
2023-06-03T20:13:38.792Z,19.30
2023-06-03T20:16:06.710Z,19.30
2023-06-03T20:18:34.487Z,19.20
2023-06-03T20:21:02.031Z,19.10
2023-06-03T20:23:29.178Z,19.00
2023-06-03T20:25:56.782Z,18.90
2023-06-03T20:28:24.948Z,18.80
2023-06-03T20:30:52.477Z,18.90
2023-06-03T20:33:19.852Z,18.90
2023-06-03T20:35:47.456Z,18.90
2023-06-03T20:38:14.844Z,19.00
2023-06-03T20:40:42.717Z,18.90
2023-06-03T20:43:09.876Z,18.80
2023-06-03T20:45:40.541Z,18.70
2023-06-03T20:48:10.914Z,18.70
2023-06-03T20:50:38.133Z,18.50
2023-06-03T20:53:06.363Z,18.30
2023-06-03T20:55:33.521Z,18.20
2023-06-03T20:58:02.709Z,18.30
2023-06-03T21:00:30.182Z,18.40
2023-06-03T21:02:58.015Z,18.40
2023-06-03T21:05:25.402Z,18.30
2023-06-03T21:07:52.545Z,18.30
2023-06-03T21:10:19.867Z,18.30
2023-06-03T21:12:47.084Z,18.30
2023-06-03T21:15:14.179Z,18.30
2023-06-03T21:17:41.341Z,18.20
2023-06-03T21:20:09.570Z,18.30
2023-06-03T21:22:36.662Z,18.20
2023-06-03T21:25:04.325Z,18.00
2023-06-03T21:27:31.419Z,18.00
2023-06-03T21:29:58.477Z,17.90
2023-06-03T21:32:25.893Z,17.90
2023-06-03T21:34:52.985Z,17.80
2023-06-03T21:37:20.139Z,17.60
2023-06-03T21:39:47.236Z,17.60
2023-06-03T21:42:14.334Z,17.60
2023-06-03T21:44:41.455Z,17.60
2023-06-03T21:47:10.425Z,17.70
2023-06-03T21:49:37.534Z,17.70
2023-06-03T21:52:04.935Z,17.60
2023-06-03T21:54:32.089Z,17.60
2023-06-03T21:56:59.236Z,17.80
2023-06-03T21:59:26.591Z,17.70
2023-06-03T22:01:53.748Z,17.60
2023-06-03T22:04:20.868Z,17.60
2023-06-03T22:06:48.076Z,17.60
2023-06-03T22:09:15.290Z,17.60
2023-06-03T22:11:42.391Z,17.70
2023-06-03T22:14:09.420Z,17.70
2023-06-03T22:16:36.628Z,17.60
2023-06-03T22:19:03.885Z,17.70
2023-06-03T22:21:31.748Z,17.70
2023-06-03T22:23:59.111Z,17.70
2023-06-03T22:26:27.815Z,17.80
2023-06-03T22:28:54.915Z,17.70
2023-06-03T22:31:21.999Z,17.80
2023-06-03T22:33:49.145Z,17.90
2023-06-03T22:36:16.451Z,17.90
2023-06-03T22:38:43.546Z,17.90
2023-06-03T22:41:10.574Z,17.90
2023-06-03T22:43:37.735Z,17.80
2023-06-03T22:46:04.870Z,17.80
2023-06-03T22:48:32.007Z,17.70
2023-06-03T22:50:59.109Z,17.80
2023-06-03T22:53:26.180Z,17.80
2023-06-03T22:55:53.445Z,17.70
2023-06-03T22:58:20.718Z,17.70
2023-06-03T23:00:47.964Z,17.70
2023-06-03T23:03:15.209Z,17.60
2023-06-03T23:05:42.318Z,17.60
2023-06-03T23:08:09.358Z,17.60
2023-06-03T23:10:36.441Z,17.60
2023-06-03T23:13:03.512Z,17.50
2023-06-03T23:15:30.523Z,17.40
2023-06-03T23:17:57.647Z,17.40
2023-06-03T23:20:28.885Z,17.30
2023-06-03T23:22:56.134Z,17.30
2023-06-03T23:25:23.349Z,17.30
2023-06-03T23:27:50.698Z,17.20
2023-06-03T23:30:17.963Z,17.30
2023-06-03T23:32:45.407Z,17.30
2023-06-03T23:35:13.058Z,17.30
2023-06-03T23:37:42.587Z,17.20
2023-06-03T23:40:11.017Z,17.20
2023-06-03T23:42:39.053Z,17.10
2023-06-03T23:45:07.133Z,17.10
2023-06-03T23:47:34.301Z,16.90
2023-06-03T23:50:01.995Z,16.80
2023-06-03T23:52:29.230Z,16.60
2023-06-03T23:54:57.110Z,16.50
2023-06-03T23:57:26.418Z,16.40
2023-06-03T23:59:53.507Z,16.30
